Hafnia Lotte — 9HA4201 — position and weather

sailwx.info

Track history (hours):
 
Tides and Currents Weather Stations Pressure Air Temp Water Temp Dewpoint Dewpoint Depression Visibility Wind Speed Wind Dir Waves Ship Positions

Hafnia Lotte

Last reported at 2018-Jan-05 23:02 UTC. Time now 2018-Jan-19 13:28 UTC.
Position N 28°42' W 014°39'.
Warning: this ship's position is 13 days out of date.

Length 183 m; draft 7.5 m.

Type: Tanker. MMSI: 249329000.

Date/timePositionNaut miles runAvg speedWind from/ knotsBaromVisibWave heightAir tempDewpointWater temp
2018-Jan-05 23:02N 28°42' W 014°39'212.9
2018-Jan-05 22:54N 28°40' W 014°40'613.0
2018-Jan-05 22:25N 28°35' W 014°42'513.0
2018-Jan-05 22:00N 28°30' W 014°45'713.0
2018-Jan-05 21:30N 28°23' W 014°47'612.6
2018-Jan-05 21:00N 28°18' W 014°50'612.8
2018-Jan-05 20:30N 28°12' W 014°52'613.0
2018-Jan-05 20:00N 28°05' W 014°55'612.8
2018-Jan-05 19:30N 27°59' W 014°57'713.0
2018-Jan-05 19:00N 27°53' W 014°60'613.0
2018-Jan-05 18:30N 27°47' W 015°03'713.5
2018-Jan-05 18:00N 27°41' W 015°05'713.4
2018-Jan-05 17:29N 27°35' W 015°09'913.5
2018-Jan-05 16:51N 27°27' W 015°13'18712.9
2018-Jan-05 02:21N 24°44' W 016°54'27512.4
2018-Jan-04 04:13N 20°41' W 019°14'1412.5
2018-Jan-04 03:07N 20°28' W 019°13'612.6
2018-Jan-04 02:38N 20°21' W 019°12'6212.8
2018-Jan-03 21:46N 19°20' W 019°05'313.0
2018-Jan-03 21:30N 19°16' W 019°05'55612.4
2018-Jan-02 00:40N 10°06' W 017°38'211.2
2018-Jan-02 00:30N 10°05' W 017°37'3711.3
2018-Jan-01 21:16N 09°37' W 017°12'311.3
2018-Jan-01 21:01N 09°35' W 017°10'611.2
2018-Jan-01 20:31N 09°31' W 017°06'611.2
2018-Jan-01 20:01N 09°27' W 017°03'2111.2
2018-Jan-01 18:08N 09°11' W 016°49'3511.1
2018-Jan-01 15:00N 08°45' W 016°25'611.0
2018-Jan-01 14:26N 08°40' W 016°21'511.1
2018-Jan-01 13:58N 08°37' W 016°18'511.3
2018-Jan-01 13:31N 08°33' W 016°14'611.6
2018-Jan-01 13:01N 08°28' W 016°10'1111.4
2018-Jan-01 12:00N 08°20' W 016°03'4911.3
2018-Jan-01 07:37N 07°43' W 015°30'1111.4
2018-Jan-01 06:39N 07°35' W 015°22'711.3
2018-Jan-01 06:00N 07°29' W 015°17'611.4
2018-Jan-01 05:29N 07°25' W 015°13'611.5
2018-Jan-01 05:00N 07°20' W 015°10'1311.8
2018-Jan-01 03:55N 07°11' W 015°01'  
2017-Dec-28 08:31N 05°05' E 000°27'010.4
2017-Dec-28 08:31N 05°05' E 000°27'1410.4
2017-Dec-28 07:12N 05°12' E 000°38'210.4
2017-Dec-28 07:01N 05°13' E 000°40'510.5
2017-Dec-28 06:30N 05°16' E 000°45'610.5
2017-Dec-28 05:54N 05°19' E 000°50'510.5
2017-Dec-28 05:28N 05°22' E 000°54'511.1
2017-Dec-28 05:01N 05°25' E 000°58'611.6
2017-Dec-28 04:31N 05°28' E 001°03'611.8
2017-Dec-28 04:01N 05°31' E 001°08'611.7
2017-Dec-28 03:31N 05°34' E 001°13'611.8
2017-Dec-28 03:01N 05°38' E 001°18'611.1
2017-Dec-28 02:30N 05°41' E 001°22'611.4
2017-Dec-28 02:01N 05°47' E 001°22'611.4
2017-Dec-28 01:30N 05°53' E 001°22'611.4
2017-Dec-28 01:01N 05°58' E 001°22'510.9
2017-Dec-28 00:31N 06°03' E 001°20'5 9.5
2017-Dec-28 00:01N 06°08' E 001°18'1 2.3
2017-Dec-27 23:30N 06°08' E 001°17'0 0.0
2017-Dec-27 23:00N 06°08' E 001°17'0 0.0
2017-Dec-27 22:30N 06°08' E 001°17'0 0.0
2017-Dec-27 22:00N 06°08' E 001°17'0 0.0
2017-Dec-27 21:30N 06°08' E 001°17'0 0.0
2017-Dec-27 21:00N 06°08' E 001°17'0 0.0
2017-Dec-27 20:24N 06°08' E 001°17'0 0.0
2017-Dec-27 20:00N 06°08' E 001°17'0 0.0
2017-Dec-27 19:30N 06°08' E 001°17'0 0.0
2017-Dec-27 19:00N 06°08' E 001°17'0 0.0
2017-Dec-27 18:30N 06°08' E 001°17'0 0.0
2017-Dec-27 18:00N 06°08' E 001°17'0 0.0
2017-Dec-27 17:30N 06°08' E 001°17'0 0.0
2017-Dec-27 17:00N 06°08' E 001°17'0 0.0
2017-Dec-27 16:30N 06°08' E 001°17'0 0.0
2017-Dec-27 16:00N 06°08' E 001°17'0 0.0
2017-Dec-27 06:51N 06°08' E 001°17'0 0.0
2017-Dec-27 05:30N 06°08' E 001°17'0 0.0
2017-Dec-27 05:00N 06°08' E 001°17'0 0.0
2017-Dec-27 04:30N 06°08' E 001°17'0 0.0
2017-Dec-27 04:00N 06°08' E 001°17'0 0.0
2017-Dec-27 03:30N 06°08' E 001°17'0 0.0
2017-Dec-27 03:00N 06°08' E 001°17'0 0.0
2017-Dec-27 02:30N 06°08' E 001°17'0 0.0
2017-Dec-27 02:00N 06°08' E 001°17'0 0.0
2017-Dec-27 01:06N 06°08' E 001°17'0 0.0
2017-Dec-27 00:30N 06°08' E 001°17'0 0.0
2017-Dec-27 00:00N 06°08' E 001°17'  
Track history (hours):
 
Tides and Currents Weather Stations Pressure Air Temp Water Temp Dewpoint Dewpoint Depression Visibility Wind Speed Wind Dir Waves Ship Positions

Hafnia Lotte

Last reported at 2018-Jan-05 23:02 UTC. Time now 2018-Jan-19 13:28 UTC.
Position N 28°42' W 014°39'.
Warning: this ship's position is 13 days out of date.

Length 183 m; draft 7.5 m.

Type: Tanker. MMSI: 249329000.

Date/timePositionNaut miles runAvg speedWind from/ knotsBaromVisibWave heightAir tempDewpointWater temp
2018-Jan-05 23:02N 28°42' W 014°39'212.9
2018-Jan-05 22:54N 28°40' W 014°40'613.0
2018-Jan-05 22:25N 28°35' W 014°42'513.0
2018-Jan-05 22:00N 28°30' W 014°45'713.0
2018-Jan-05 21:30N 28°23' W 014°47'612.6
2018-Jan-05 21:00N 28°18' W 014°50'612.8
2018-Jan-05 20:30N 28°12' W 014°52'613.0
2018-Jan-05 20:00N 28°05' W 014°55'612.8
2018-Jan-05 19:30N 27°59' W 014°57'713.0
2018-Jan-05 19:00N 27°53' W 014°60'613.0
2018-Jan-05 18:30N 27°47' W 015°03'713.5
2018-Jan-05 18:00N 27°41' W 015°05'713.4
2018-Jan-05 17:29N 27°35' W 015°09'913.5
2018-Jan-05 16:51N 27°27' W 015°13'18712.9
2018-Jan-05 02:21N 24°44' W 016°54'27512.4
2018-Jan-04 04:13N 20°41' W 019°14'1412.5
2018-Jan-04 03:07N 20°28' W 019°13'612.6
2018-Jan-04 02:38N 20°21' W 019°12'6212.8
2018-Jan-03 21:46N 19°20' W 019°05'313.0
2018-Jan-03 21:30N 19°16' W 019°05'55612.4
2018-Jan-02 00:40N 10°06' W 017°38'211.2
2018-Jan-02 00:30N 10°05' W 017°37'3711.3
2018-Jan-01 21:16N 09°37' W 017°12'311.3
2018-Jan-01 21:01N 09°35' W 017°10'611.2
2018-Jan-01 20:31N 09°31' W 017°06'611.2
2018-Jan-01 20:01N 09°27' W 017°03'2111.2
2018-Jan-01 18:08N 09°11' W 016°49'3511.1
2018-Jan-01 15:00N 08°45' W 016°25'611.0
2018-Jan-01 14:26N 08°40' W 016°21'511.1
2018-Jan-01 13:58N 08°37' W 016°18'511.3
2018-Jan-01 13:31N 08°33' W 016°14'611.6
2018-Jan-01 13:01N 08°28' W 016°10'1111.4
2018-Jan-01 12:00N 08°20' W 016°03'4911.3
2018-Jan-01 07:37N 07°43' W 015°30'1111.4
2018-Jan-01 06:39N 07°35' W 015°22'711.3
2018-Jan-01 06:00N 07°29' W 015°17'611.4
2018-Jan-01 05:29N 07°25' W 015°13'611.5
2018-Jan-01 05:00N 07°20' W 015°10'1311.8
2018-Jan-01 03:55N 07°11' W 015°01'  
2017-Dec-28 08:31N 05°05' E 000°27'010.4
2017-Dec-28 08:31N 05°05' E 000°27'1410.4
2017-Dec-28 07:12N 05°12' E 000°38'210.4
2017-Dec-28 07:01N 05°13' E 000°40'510.5
2017-Dec-28 06:30N 05°16' E 000°45'610.5
2017-Dec-28 05:54N 05°19' E 000°50'510.5
2017-Dec-28 05:28N 05°22' E 000°54'511.1
2017-Dec-28 05:01N 05°25' E 000°58'611.6
2017-Dec-28 04:31N 05°28' E 001°03'611.8
2017-Dec-28 04:01N 05°31' E 001°08'611.7
2017-Dec-28 03:31N 05°34' E 001°13'611.8
2017-Dec-28 03:01N 05°38' E 001°18'611.1
2017-Dec-28 02:30N 05°41' E 001°22'611.4
2017-Dec-28 02:01N 05°47' E 001°22'611.4
2017-Dec-28 01:30N 05°53' E 001°22'611.4
2017-Dec-28 01:01N 05°58' E 001°22'510.9
2017-Dec-28 00:31N 06°03' E 001°20'5 9.5
2017-Dec-28 00:01N 06°08' E 001°18'1 2.3
2017-Dec-27 23:30N 06°08' E 001°17'0 0.0
2017-Dec-27 23:00N 06°08' E 001°17'0 0.0
2017-Dec-27 22:30N 06°08' E 001°17'0 0.0
2017-Dec-27 22:00N 06°08' E 001°17'0 0.0
2017-Dec-27 21:30N 06°08' E 001°17'0 0.0
2017-Dec-27 21:00N 06°08' E 001°17'0 0.0
2017-Dec-27 20:24N 06°08' E 001°17'0 0.0
2017-Dec-27 20:00N 06°08' E 001°17'0 0.0
2017-Dec-27 19:30N 06°08' E 001°17'0 0.0
2017-Dec-27 19:00N 06°08' E 001°17'0 0.0
2017-Dec-27 18:30N 06°08' E 001°17'0 0.0
2017-Dec-27 18:00N 06°08' E 001°17'0 0.0
2017-Dec-27 17:30N 06°08' E 001°17'0 0.0
2017-Dec-27 17:00N 06°08' E 001°17'0 0.0
2017-Dec-27 16:30N 06°08' E 001°17'0 0.0
2017-Dec-27 16:00N 06°08' E 001°17'0 0.0
2017-Dec-27 06:51N 06°08' E 001°17'0 0.0
2017-Dec-27 05:30N 06°08' E 001°17'0 0.0
2017-Dec-27 05:00N 06°08' E 001°17'0 0.0
2017-Dec-27 04:30N 06°08' E 001°17'0 0.0
2017-Dec-27 04:00N 06°08' E 001°17'0 0.0
2017-Dec-27 03:30N 06°08' E 001°17'0 0.0
2017-Dec-27 03:00N 06°08' E 001°17'0 0.0
2017-Dec-27 02:30N 06°08' E 001°17'0 0.0
2017-Dec-27 02:00N 06°08' E 001°17'0 0.0
2017-Dec-27 01:06N 06°08' E 001°17'0 0.0
2017-Dec-27 00:30N 06°08' E 001°17'0 0.0
2017-Dec-27 00:00N 06°08' E 001°17'  

Dump ship's entire track history